Latest Weather Observations for Cooktown

IDQ60801

Issued at 2:32 pm EST Tuesday 3 May 2016 (issued every 30 minutes, with the page automatically refreshed every 10 minutes)

About weather observations | Map of weather stations | Latest weather observations for QLD | Other Formats
Station Details ID: 031209 Name: COOKTOWN AIRPORT Lat: -15.45 Lon: 145.19 Height: 4.8 m
Data from the previous 72 hours. | See also: Recent months at Cooktown
Date/Time
EST
Temp
°C
App
Temp
°C
Dew
Point
Rel
Hum
%
Delta-T
°C
Wind Press
QNH
hPa
Press
MSL
hPa
Rain
since 9 am
mm
Dir
 
Spd
km/h
Gust
km/h
Spd
kts
Gust
kts
03/02:30pm 29.1 30.6 22.0 65 4.8 E 17 24 9 13 1011.2 - 0.0
03/02:00pm 29.2 31.4 21.9 64 4.9 ESE 13 19 7 10 1011.2 - 0.0
03/01:30pm 28.9 30.4 21.3 63 5.1 ESE 15 22 8 12 1011.5 - 0.0
03/01:00pm 28.7 30.0 21.7 66 4.7 ESE 17 24 9 13 1012.1 - 0.0
03/12:30pm 28.5 29.8 21.6 66 4.6 ESE 17 26 9 14 1012.7 - 0.0
03/12:00pm 28.2 30.1 22.0 69 4.2 SE 15 20 8 11 1013.1 1013.1 0.0
03/11:30am 28.9 31.9 23.4 72 3.8 ESE 13 20 7 11 1013.5 - 0.0
03/11:00am 28.1 30.5 23.0 74 3.5 ESE 15 22 8 12 1013.8 - 0.0
03/10:30am 27.5 29.3 22.5 74 3.4 ESE 17 20 9 11 1014.1 - 0.0
03/10:00am 28.2 30.1 23.4 75 3.3 ESE 19 26 10 14 1014.2 - 0.0
03/09:30am 27.2 29.6 22.9 77 2.9 SE 15 20 8 11 1014.2 - 0.0
03/09:00am 27.3 30.3 23.3 79 2.7 SE 13 20 7 11 1014.1 1014.1 0.0
03/08:30am 26.6 30.2 23.7 84 2.0 SSE 11 17 6 9 1013.9 - 0.0
03/08:00am 26.8 30.8 23.7 83 2.1 SE 9 15 5 8 1013.8 - 0.0
03/07:30am 26.2 30.2 23.7 86 1.7 SE 9 15 5 8 1013.6 - 0.0
03/07:07am 26.0 30.0 23.7 87 1.6 SE 9 11 5 6 1013.4 - 0.0
03/07:00am 25.7 29.5 23.5 88 1.5 SE 9 13 5 7 1013.4 - 0.0
03/06:30am 25.2 28.8 23.1 88 1.4 SE 9 11 5 6 1013.3 - 0.0
03/06:28am 25.2 28.8 23.0 87 1.5 SE 9 13 5 7 1013.3 - 0.0
03/06:00am 25.0 28.1 22.9 88 1.4 SE 11 13 6 7 1012.9 1012.8 0.0
03/05:30am 25.2 28.7 22.8 86 1.6 SE 9 15 5 8 1012.6 - 0.0
03/05:00am 25.4 29.0 23.0 86 1.6 SE 9 13 5 7 1012.5 - 0.0
03/04:30am 25.3 28.4 22.8 86 1.7 ESE 11 15 6 8 1012.3 - 0.0
03/04:00am 25.5 28.3 23.0 86 1.7 ESE 13 17 7 9 1012.0 - 0.0
03/03:30am 25.6 28.5 23.1 86 1.7 ESE 13 22 7 12 1012.1 - 0.0
03/03:00am 25.7 29.0 23.2 86 1.7 SE 11 20 6 11 1012.2 1012.2 0.0
03/02:30am 25.7 28.4 22.9 84 1.9 ESE 13 19 7 10 1012.4 - 0.0
03/02:00am 25.8 29.7 23.6 88 1.5 SE 9 13 5 7 1012.8 - 0.0
03/01:30am 25.7 29.1 23.3 86 1.6 SE 11 15 6 8 1013.1 - 0.0
03/01:00am 25.8 29.3 23.5 87 1.6 SE 11 17 6 9 1013.3 - 0.0
03/12:30am 25.9 29.3 23.4 86 1.7 SE 11 19 6 10 1013.7 - 0.0
03/12:00am 26.1 29.7 23.8 87 1.6 SE 11 17 6 9 1013.9 1013.9 0.0
 
Date/Time
EST
Temp
°C
App
Temp
°C
Dew
Point
Rel
Hum
%
Delta-T
°C
Wind Press
QNH
hPa
Press
MSL
hPa
Rain
since 9 am
mm
Dir
 
Spd
km/h
Gust
km/h
Spd
kts
Gust
kts
02/11:30pm 26.0 29.1 23.5 86 1.7 SE 13 20 7 11 1014.2 - 0.0
02/11:00pm 25.9 30.0 24.0 89 1.3 SE 9 19 5 10 1014.3 - 0.0
02/10:30pm 26.1 29.7 23.8 87 1.6 SE 11 17 6 9 1014.4 - 0.0
02/10:00pm 25.6 30.0 23.8 90 1.2 SE 7 9 4 5 1014.5 - 0.0
02/09:30pm 25.9 29.6 23.9 89 1.4 ESE 11 15 6 8 1014.5 - 0.0
02/09:00pm 25.9 29.3 24.0 89 1.3 SE 13 17 7 9 1014.4 1014.4 0.0
02/08:30pm 25.9 30.2 24.2 90 1.2 SE 9 17 5 9 1014.3 - 0.0
02/08:00pm 25.7 29.9 24.1 91 1.1 SE 9 13 5 7 1014.1 - 0.0
02/07:30pm 25.8 30.0 24.1 90 1.2 SE 9 13 5 7 1013.8 - 0.0
02/07:00pm 25.8 30.3 23.9 89 1.3 SE 7 11 4 6 1013.4 - 0.0
02/06:30pm 26.1 29.7 23.8 87 1.6 SE 11 15 6 8 1013.0 - 0.0
02/06:00pm 26.4 30.2 24.1 87 1.6 ESE 11 17 6 9 1012.7 1012.6 0.0
02/05:30pm 26.8 29.8 24.0 84 1.9 SE 15 22 8 12 1012.2 - 0.0
02/05:00pm 27.3 30.2 23.8 81 2.4 ESE 15 22 8 12 1011.9 - 0.0
02/04:30pm 27.8 30.2 23.7 78 2.8 SE 17 22 9 12 1011.7 - 0.0
02/04:00pm 27.7 29.5 23.3 77 3.0 ESE 19 28 10 15 1011.4 - 0.0
02/03:30pm 29.0 31.7 24.1 75 3.4 SE 17 26 9 14 1011.3 - 0.0
02/03:00pm 29.1 31.3 23.9 73 3.6 ESE 19 28 10 15 1011.4 1011.4 0.0
02/02:30pm 29.6 31.9 24.4 73 3.6 ESE 20 32 11 17 1011.5 - 0.0
02/02:00pm 29.0 31.2 23.9 74 3.5 ESE 19 26 10 14 1011.7 - 0.0
02/01:30pm 28.8 31.0 24.0 75 3.3 ESE 19 28 10 15 1012.0 - 0.0
02/01:00pm 28.9 30.8 23.7 73 3.6 SE 20 32 11 17 1012.1 - 0.0
02/12:30pm 29.1 31.2 24.7 77 3.1 ESE 22 35 12 19 1012.5 - 0.0
02/12:00pm 28.0 29.8 23.6 77 3.0 ESE 20 32 11 17 1013.1 1013.2 0.0
02/11:30am 28.2 30.2 24.0 78 2.9 SE 20 33 11 18 1013.5 - 0.0
02/11:17am 28.2 30.4 24.0 78 2.9 SE 19 32 10 17 1013.6 - 0.0
02/11:00am 28.6 30.9 24.4 78 2.9 SE 20 30 11 16 1013.7 - 0.0
02/10:30am 28.2 30.7 24.5 80 2.6 SE 19 32 10 17 1014.0 - 0.0
02/10:00am 28.4 30.4 24.5 79 2.7 SE 22 32 12 17 1014.3 - 0.0
02/09:30am 28.3 30.8 24.4 79 2.7 SE 19 30 10 16 1014.6 - 0.0
02/09:00am 28.6 31.5 24.4 78 2.9 SE 17 24 9 13 1014.5 1014.4 0.2
02/08:30am 28.1 30.7 24.0 78 2.8 SE 17 26 9 14 1014.1 - 0.2
02/08:00am 27.8 30.5 24.2 81 2.5 ESE 17 26 9 14 1014.1 - 0.2
02/07:40am 27.3 29.8 23.8 81 2.4 ESE 17 30 9 16 1013.9 - 0.2
02/07:30am 26.9 29.4 23.8 83 2.1 ESE 17 26 9 14 1013.9 - 0.2
02/07:14am 26.6 29.8 23.7 84 2.0 ESE 13 22 7 12 1013.7 - 0.2
02/07:00am 26.4 30.1 23.9 86 1.7 ESE 11 15 6 8 1013.6 - 0.2
02/06:39am 26.2 29.7 23.6 85 1.8 ESE 11 15 6 8 1013.5 - 0.2
02/06:30am 26.1 29.6 23.5 85 1.8 ESE 11 17 6 9 1013.4 - 0.2
02/06:00am 26.3 29.5 23.7 85 1.8 ESE 13 20 7 11 1013.3 1013.2 0.2
02/05:30am 26.5 30.3 24.0 86 1.7 SE 11 22 6 12 1012.9 - 0.2
02/05:00am 26.4 29.5 24.1 87 1.6 SE 15 20 8 11 1012.6 - 0.2
02/04:30am 26.5 29.1 24.0 86 1.7 SE 17 26 9 14 1012.5 - 0.2
02/04:00am 26.6 29.7 24.1 86 1.7 SE 15 26 8 14 1012.4 - 0.2
02/03:30am 26.4 29.5 24.1 87 1.6 SE 15 24 8 13 1012.4 - 0.2
02/03:00am 26.5 29.6 24.2 87 1.6 SE 15 26 8 14 1012.5 1012.6 0.2
02/02:35am 26.6 29.6 24.0 86 1.8 SE 15 24 8 13 1012.7 - 0.2
02/02:30am 26.6 29.2 24.0 86 1.8 SE 17 28 9 15 1012.7 - 0.2
02/02:00am 26.7 29.6 24.4 87 1.6 SE 17 26 9 14 1013.0 - 0.2
02/01:38am 26.7 29.4 24.1 86 1.8 ESE 17 28 9 15 1013.0 - 0.2
02/01:30am 26.8 29.0 24.0 84 1.9 ESE 19 28 10 15 1013.1 - 0.2
02/01:00am 26.7 29.6 24.4 87 1.6 SE 17 26 9 14 1013.3 - 0.2
02/12:33am 26.6 29.7 24.1 86 1.7 SE 15 24 8 13 1013.5 - 0.2
02/12:30am 26.5 29.6 24.2 87 1.6 SE 15 24 8 13 1013.5 - 0.2
02/12:13am 26.5 29.8 24.5 89 1.4 SE 15 22 8 12 1013.9 - 0.2
02/12:12am 26.5 29.8 24.5 89 1.4 SE 15 22 8 12 1013.9 - 0.2
02/12:00am 26.5 29.7 24.3 88 1.5 SE 15 26 8 14 1013.9 1014.0 0.2
 
Date/Time
EST
Temp
°C
App
Temp
°C
Dew
Point
Rel
Hum
%
Delta-T
°C
Wind Press
QNH
hPa
Press
MSL
hPa
Rain
since 9 am
mm
Dir
 
Spd
km/h
Gust
km/h
Spd
kts
Gust
kts
01/11:54pm 26.5 29.7 24.3 88 1.5 SE 15 24 8 13 1014.0 - 0.2
01/11:47pm 26.5 29.8 24.5 89 1.4 SE 15 20 8 11 1014.0 - 0.2
01/11:30pm 26.6 30.0 24.6 89 1.4 SE 15 22 8 12 1014.1 - 0.2
01/11:24pm 26.7 30.0 24.5 88 1.5 SE 15 22 8 12 1014.2 - 0.2
01/11:07pm 26.5 30.2 24.6 89 1.3 ESE 13 20 7 11 1014.3 - 0.2
01/11:00pm 26.6 30.0 24.6 89 1.4 SE 15 20 8 11 1014.3 - 0.2
01/10:30pm 26.7 30.1 24.7 89 1.4 SE 15 20 8 11 1014.4 - 0.2
01/10:28pm 26.7 30.5 24.7 89 1.4 SE 13 20 7 11 1014.4 - 0.2
01/10:00pm 26.5 29.9 24.6 89 1.3 SE 15 28 8 15 1014.4 - 0.2
01/09:30pm 26.6 30.0 24.6 89 1.4 SE 15 24 8 13 1014.4 - 0.2
01/09:15pm 26.6 30.0 24.6 89 1.4 SE 15 20 8 11 1014.4 - 0.2
01/09:00pm 26.5 29.9 24.6 89 1.3 SE 15 20 8 11 1014.3 1014.3 0.2
01/08:43pm 26.5 30.2 24.5 89 1.4 SE 13 22 7 12 1014.2 - 0.2
01/08:30pm 26.5 29.9 24.6 89 1.3 SE 15 24 8 13 1014.0 - 0.2
01/08:10pm 26.4 30.5 24.5 89 1.3 SE 11 20 6 11 1014.1 - 0.2
01/08:00pm 26.3 30.0 24.6 90 1.2 SE 13 19 7 10 1014.0 - 0.2
01/07:30pm 26.3 30.4 24.6 90 1.2 SE 11 17 6 9 1013.7 - 0.2
01/07:00pm 26.7 30.1 24.7 89 1.4 SE 15 22 8 12 1013.4 - 0.2
01/06:30pm 26.8 30.2 24.6 88 1.5 SE 15 24 8 13 1013.1 - 0.2
01/06:00pm 27.0 30.5 24.8 88 1.5 SE 15 22 8 12 1012.7 1012.7 0.2
01/05:30pm 27.3 30.5 24.9 87 1.7 SE 17 26 9 14 1012.5 - 0.2
01/05:00pm 27.7 30.4 24.8 84 2.0 ESE 19 26 10 14 1012.4 - 0.2
01/04:53pm 27.8 30.5 24.8 84 2.1 ESE 19 30 10 16 1012.4 - 0.2
01/04:30pm 27.4 30.2 25.0 87 1.7 SE 19 28 10 15 1012.3 - 0.2
01/04:25pm 27.5 29.7 24.8 85 1.9 SE 22 37 12 20 1012.4 - 0.2
01/04:00pm 28.3 30.4 24.7 81 2.5 ESE 22 35 12 19 1012.3 - 0.2
01/03:30pm 27.4 30.3 25.1 87 1.6 SE 19 30 10 16 1012.2 - 0.2
01/03:28pm 27.3 29.9 24.9 87 1.7 SE 20 32 11 17 1012.2 - 0.2
01/03:17pm 28.5 30.8 24.5 79 2.8 ESE 20 33 11 18 1012.2 - 0.2
01/03:12pm 28.6 31.1 24.4 78 2.9 ESE 19 33 10 18 1012.2 - 0.2
01/03:00pm 28.7 31.0 24.5 78 2.9 ESE 20 32 11 17 1012.2 1012.1 0.2
01/02:36pm 28.8 31.5 24.8 79 2.8 SE 19 28 10 15 1012.3 - 0.2
01/02:30pm 28.9 31.9 24.6 77 3.0 SE 17 26 9 14 1012.3 - 0.2
01/02:00pm 29.3 32.1 25.2 78 2.9 SE 20 30 11 16 1012.6 - 0.2
01/01:30pm 29.2 31.8 24.9 77 3.0 ESE 20 28 11 15 1013.0 - 0.2
01/01:21pm 29.2 32.2 25.2 79 2.8 ESE 19 32 10 17 1013.1 - 0.2
01/01:00pm 28.2 30.8 24.9 82 2.3 SE 20 28 11 15 1013.5 - 0.2
01/12:30pm 27.4 29.9 24.7 85 1.9 SE 20 35 11 19 1013.8 - 0.2
01/12:08pm 28.1 30.4 25.0 83 2.2 ESE 22 32 12 17 1014.0 - 0.2
01/12:00pm 28.5 31.2 25.1 82 2.4 SE 20 32 11 17 1014.1 1014.1 0.2
01/11:30am 27.2 30.0 24.9 87 1.6 SE 19 28 10 15 1014.6 - 0.2
01/11:00am 28.8 31.6 25.2 81 2.5 SE 20 30 11 16 1014.6 - 0.2
01/10:30am 28.2 31.4 25.5 85 1.9 SE 19 28 10 15 1015.0 - 0.0
01/10:00am 28.1 30.4 25.1 84 2.1 SE 22 32 12 17 1015.3 - 0.0
01/09:30am 27.9 31.3 25.2 85 1.9 ESE 17 24 9 13 1015.3 - 0.0
01/09:00am 26.9 30.6 25.2 90 1.2 SE 15 26 8 14 1015.3 1015.2 8.0
01/08:52am 26.8 30.3 24.8 89 1.4 SE 15 24 8 13 1015.2 - 8.0
01/08:30am 26.6 29.1 24.4 88 1.5 ESE 19 32 10 17 1015.3 - 8.0
01/08:24am 26.5 28.7 24.2 87 1.6 ESE 20 32 11 17 1015.2 - 8.0
01/08:11am 26.8 29.9 24.8 89 1.4 SE 17 28 9 15 1015.0 - 8.0
01/08:00am 27.2 29.6 24.3 84 2.0 SE 19 30 10 16 1014.8 - 7.2
01/07:34am 27.0 28.4 23.6 81 2.3 ESE 22 35 12 19 1014.7 - 7.2
01/07:30am 27.0 28.8 23.6 81 2.3 ESE 20 35 11 19 1014.6 - 7.2
01/07:00am 26.7 29.4 24.2 86 1.7 SE 17 28 9 15 1014.4 - 7.2
01/06:34am 26.5 28.7 23.9 85 1.8 SE 19 32 10 17 1014.1 - 7.2
01/06:30am 26.6 28.9 24.1 86 1.7 SE 19 32 10 17 1014.0 - 7.2
01/06:00am 26.6 29.3 24.1 86 1.7 SE 17 24 9 13 1013.6 1013.6 7.2
01/05:36am 26.5 29.3 24.3 88 1.5 SE 17 30 9 16 1013.4 - 7.2
01/05:33am 26.6 29.0 24.3 87 1.6 SE 19 30 10 16 1013.4 - 7.2
01/05:30am 26.6 29.0 24.3 87 1.6 SE 19 30 10 16 1013.4 - 7.2
01/05:16am 26.5 28.9 24.2 87 1.6 SE 19 30 10 16 1013.2 - 7.2
01/05:00am 26.6 29.3 24.1 86 1.7 SE 17 24 9 13 1013.0 - 7.2
01/04:50am 26.6 29.7 24.1 86 1.7 SE 15 26 8 14 1012.9 - 7.2
01/04:40am 26.6 29.2 24.0 86 1.8 SE 17 26 9 14 1012.9 - 7.2
01/04:34am 26.5 29.2 24.2 87 1.6 SE 17 26 9 14 1012.9 - 7.2
01/04:30am 26.5 29.2 24.2 87 1.6 SE 17 26 9 14 1012.9 - 7.2
01/04:11am 26.6 28.9 24.1 86 1.7 SE 19 28 10 15 1012.9 - 7.2
01/04:00am 26.4 29.1 24.2 88 1.5 SE 17 28 9 15 1012.9 - 7.2
01/03:30am 26.5 29.1 24.0 86 1.7 ESE 17 24 9 13 1012.9 - 7.2
01/03:00am 26.6 29.3 24.1 86 1.7 SE 17 28 9 15 1013.0 1013.0 7.2
01/02:51am 26.7 29.4 24.1 86 1.8 SE 17 24 9 13 1013.0 - 7.2
01/02:37am 26.6 29.3 24.1 86 1.7 SE 17 28 9 15 1013.1 - 7.2
01/02:30am 26.6 29.4 24.3 87 1.6 SE 17 24 9 13 1013.1 - 7.2
01/02:00am 26.5 29.1 24.0 86 1.7 SE 17 28 9 15 1013.1 - 7.2
01/01:30am 26.7 29.0 24.1 86 1.8 SE 19 28 10 15 1013.4 - 7.2
01/01:22am 26.6 29.0 24.3 87 1.6 SE 19 24 10 13 1013.5 - 7.2
01/01:00am 26.6 29.4 24.3 87 1.6 SE 17 24 9 13 1013.7 - 7.2
01/12:47am 26.6 29.5 24.4 88 1.5 SE 17 26 9 14 1013.8 - 7.2
01/12:30am 26.6 29.5 24.4 88 1.5 ESE 17 28 9 15 1013.8 - 7.2
01/12:00am 26.6 29.2 24.6 89 1.4 ESE 19 28 10 15 1014.0 1014.0 7.2
 
Date/Time
EST
Temp
°C
App
Temp
°C
Dew
Point
Rel
Hum
%
Delta-T
°C
Wind Press
QNH
hPa
Press
MSL
hPa
Rain
since 9 am
mm
Dir
 
Spd
km/h
Gust
km/h
Spd
kts
Gust
kts
30/11:58pm 26.6 29.2 24.6 89 1.4 ESE 19 30 10 16 1014.1 - 7.2
30/11:30pm 26.7 29.2 24.5 88 1.5 ESE 19 30 10 16 1014.1 - 7.2
30/11:09pm 26.6 29.6 24.6 89 1.4 ESE 17 28 9 15 1014.2 - 7.2
30/11:00pm 26.5 29.9 24.6 89 1.3 ESE 15 24 8 13 1014.3 - 7.2
30/10:30pm 26.4 29.4 24.7 90 1.2 ESE 17 28 9 15 1014.4 - 7.2
30/10:23pm 26.3 29.7 24.6 90 1.2 ESE 15 24 8 13 1014.4 - 7.2
30/10:11pm 26.3 28.9 24.6 90 1.2 SE 19 32 10 17 1014.4 - 7.2
30/10:00pm 26.0 29.0 24.7 92 0.9 ESE 17 26 9 14 1014.4 - 7.2
30/09:50pm 25.9 28.3 24.6 92 0.9 E 20 30 11 16 1014.4 - 7.2
30/09:49pm 26.0 28.4 24.6 92 1.0 E 20 30 11 16 1014.4 - 7.2
30/09:30pm 26.4 30.0 25.0 92 1.0 SE 15 20 8 11 1014.4 - 7.2
30/09:00pm 26.1 29.5 24.7 92 1.0 ESE 15 19 8 10 1014.3 1014.2 7.2
30/08:51pm 26.1 29.1 24.7 92 1.0 ESE 17 22 9 12 1014.2 - 7.2
30/08:30pm 26.3 29.9 25.0 92 0.9 ESE 15 20 8 11 1014.0 - 7.2
30/08:02pm 26.2 29.7 24.9 92 0.9 ESE 15 24 8 13 1013.7 - 7.0
30/08:00pm 26.2 29.9 25.1 94 0.8 ESE 15 24 8 13 1013.7 - 7.0
30/07:30pm 26.1 29.7 25.0 94 0.8 SE 15 20 8 11 1013.2 - 5.0
30/07:27pm 26.2 30.2 25.1 94 0.8 SE 13 20 7 11 1013.3 - 5.0
30/07:24pm 26.3 30.3 25.0 92 0.9 SSE 13 24 7 13 1013.3 - 4.2
30/07:10pm 26.2 30.6 25.1 94 0.8 SE 11 17 6 9 1013.1 - 4.2
30/07:00pm 26.2 30.2 25.1 94 0.8 SE 13 24 7 13 1013.0 - 4.0
30/06:59pm 26.2 30.2 25.1 94 0.8 ESE 13 24 7 13 1013.0 - 4.0
30/06:31pm 26.0 30.0 25.0 94 0.7 SE 13 19 7 10 1012.7 - 4.0
30/06:30pm 26.0 30.0 25.0 94 0.7 SE 13 19 7 10 1012.7 - 4.0
30/06:06pm 26.3 28.9 24.6 90 1.2 SE 19 28 10 15 1012.7 - 2.8
30/06:00pm 26.8 28.6 24.3 86 1.7 SE 22 33 12 18 1012.6 1012.5 2.8
30/05:30pm 27.1 30.4 24.5 86 1.8 ESE 15 24 8 13 1012.4 - 2.8
30/05:00pm 27.3 30.0 24.7 86 1.8 SE 19 28 10 15 1012.3 - 2.8
30/04:37pm 27.4 30.1 24.7 85 1.9 SE 19 30 10 16 1012.2 - 2.8
30/04:30pm 27.4 30.1 24.7 85 1.9 ESE 19 28 10 15 1012.2 - 2.8
30/04:27pm 27.4 29.9 24.7 85 1.9 SE 20 35 11 19 1012.2 - 2.8
30/04:00pm 27.8 29.8 24.5 82 2.3 ESE 22 35 12 19 1012.1 - 2.8
30/03:50pm 27.8 30.2 24.3 81 2.4 ESE 19 35 10 19 1012.1 - 2.8
30/03:30pm 27.8 29.8 24.5 82 2.3 ESE 22 35 12 19 1012.1 - 2.8
30/03:01pm 27.9 29.4 24.4 81 2.4 ESE 24 44 13 24 1012.2 - 2.8
30/03:00pm 28.1 29.6 24.4 80 2.6 ESE 24 44 13 24 1012.2 1012.0 2.8

Other Formats:

Comma delimited format used in spreadsheet applications
http://www.bom.gov.au/fwo/IDQ60801/IDQ60801.95283.axf

JavaScript Object Notation format (JSON) in row-major order
http://www.bom.gov.au/fwo/IDQ60801/IDQ60801.95283.json